sensor_id;sensor_type;location;lat;lon;timestamp;P1;durP1;ratioP1;P2;durP2;ratioP2
18387;SDS011;9320;50.256;19.026;2022-11-23T00:01:01;68.80;;;35.83;;
18387;SDS011;9320;50.256;19.026;2022-11-23T00:03:40;68.97;;;32.37;;
18387;SDS011;9320;50.256;19.026;2022-11-23T00:06:08;74.17;;;36.07;;
18387;SDS011;9320;50.256;19.026;2022-11-23T00:08:36;73.13;;;34.30;;
18387;SDS011;9320;50.256;19.026;2022-11-23T00:11:05;69.03;;;34.77;;
18387;SDS011;9320;50.256;19.026;2022-11-23T00:13:33;71.07;;;34.63;;
18387;SDS011;9320;50.256;19.026;2022-11-23T00:16:05;69.30;;;35.77;;
18387;SDS011;9320;50.256;19.026;2022-11-23T00:18:33;68.13;;;33.93;;
18387;SDS011;9320;50.256;19.026;2022-11-23T00:21:04;71.83;;;37.83;;
18387;SDS011;9320;50.256;19.026;2022-11-23T00:23:33;77.50;;;37.57;;
18387;SDS011;9320;50.256;19.026;2022-11-23T00:26:02;69.17;;;35.33;;
18387;SDS011;9320;50.256;19.026;2022-11-23T00:28:30;72.13;;;35.33;;
18387;SDS011;9320;50.256;19.026;2022-11-23T00:31:00;72.17;;;35.67;;
18387;SDS011;9320;50.256;19.026;2022-11-23T00:33:29;73.33;;;36.47;;
18387;SDS011;9320;50.256;19.026;2022-11-23T00:35:57;70.97;;;36.37;;
18387;SDS011;9320;50.256;19.026;2022-11-23T00:38:26;65.70;;;34.27;;
18387;SDS011;9320;50.256;19.026;2022-11-23T00:40:58;66.07;;;34.90;;
18387;SDS011;9320;50.256;19.026;2022-11-23T00:43:27;71.37;;;35.53;;
18387;SDS011;9320;50.256;19.026;2022-11-23T00:46:02;71.97;;;34.83;;
18387;SDS011;9320;50.256;19.026;2022-11-23T00:48:35;77.33;;;35.83;;
18387;SDS011;9320;50.256;19.026;2022-11-23T00:51:04;64.67;;;32.37;;
18387;SDS011;9320;50.256;19.026;2022-11-23T00:53:34;67.90;;;33.10;;
18387;SDS011;9320;50.256;19.026;2022-11-23T00:56:03;70.87;;;34.07;;
18387;SDS011;9320;50.256;19.026;2022-11-23T00:58:31;65.57;;;32.60;;
18387;SDS011;9320;50.256;19.026;2022-11-23T01:01:00;59.93;;;31.57;;
18387;SDS011;9320;50.256;19.026;2022-11-23T01:03:30;62.20;;;31.67;;
18387;SDS011;9320;50.256;19.026;2022-11-23T01:06:06;63.23;;;32.10;;
18387;SDS011;9320;50.256;19.026;2022-11-23T01:08:35;65.23;;;32.20;;
18387;SDS011;9320;50.256;19.026;2022-11-23T01:11:04;62.83;;;33.30;;
18387;SDS011;9320;50.256;19.026;2022-11-23T01:13:34;69.73;;;34.63;;
18387;SDS011;9320;50.256;19.026;2022-11-23T01:16:03;61.13;;;31.23;;
18387;SDS011;9320;50.256;19.026;2022-11-23T01:18:31;58.00;;;29.50;;
18387;SDS011;9320;50.256;19.026;2022-11-23T01:20:59;60.07;;;31.20;;
18387;SDS011;9320;50.256;19.026;2022-11-23T01:23:29;59.57;;;32.00;;
18387;SDS011;9320;50.256;19.026;2022-11-23T01:25:58;58.77;;;30.77;;
18387;SDS011;9320;50.256;19.026;2022-11-23T01:28:31;55.97;;;29.93;;
18387;SDS011;9320;50.256;19.026;2022-11-23T01:31:03;53.50;;;27.60;;
18387;SDS011;9320;50.256;19.026;2022-11-23T01:33:34;60.50;;;29.30;;
18387;SDS011;9320;50.256;19.026;2022-11-23T01:36:07;67.13;;;29.80;;
18387;SDS011;9320;50.256;19.026;2022-11-23T01:38:37;58.97;;;28.43;;
18387;SDS011;9320;50.256;19.026;2022-11-23T01:41:06;63.80;;;30.57;;
18387;SDS011;9320;50.256;19.026;2022-11-23T01:43:35;61.57;;;28.93;;
18387;SDS011;9320;50.256;19.026;2022-11-23T01:46:04;61.07;;;28.13;;
18387;SDS011;9320;50.256;19.026;2022-11-23T01:48:33;59.63;;;28.43;;
18387;SDS011;9320;50.256;19.026;2022-11-23T01:51:05;63.73;;;29.37;;
18387;SDS011;9320;50.256;19.026;2022-11-23T01:53:39;67.53;;;30.53;;
18387;SDS011;9320;50.256;19.026;2022-11-23T01:56:09;62.97;;;29.97;;
18387;SDS011;9320;50.256;19.026;2022-11-23T01:58:41;69.40;;;30.57;;
18387;SDS011;9320;50.256;19.026;2022-11-23T02:01:12;70.23;;;31.17;;
18387;SDS011;9320;50.256;19.026;2022-11-23T02:03:41;71.93;;;32.07;;
18387;SDS011;9320;50.256;19.026;2022-11-23T02:06:13;70.63;;;33.07;;
18387;SDS011;9320;50.256;19.026;2022-11-23T02:08:44;62.97;;;29.03;;
18387;SDS011;9320;50.256;19.026;2022-11-23T02:11:14;64.70;;;30.90;;
18387;SDS011;9320;50.256;19.026;2022-11-23T02:13:43;73.97;;;33.87;;
18387;SDS011;9320;50.256;19.026;2022-11-23T02:16:13;67.20;;;31.87;;
18387;SDS011;9320;50.256;19.026;2022-11-23T02:18:43;70.77;;;31.10;;
18387;SDS011;9320;50.256;19.026;2022-11-23T02:21:14;69.47;;;33.43;;
18387;SDS011;9320;50.256;19.026;2022-11-23T02:23:44;72.70;;;31.53;;
18387;SDS011;9320;50.256;19.026;2022-11-23T02:26:21;73.57;;;32.63;;
18387;SDS011;9320;50.256;19.026;2022-11-23T02:28:51;80.57;;;34.13;;
18387;SDS011;9320;50.256;19.026;2022-11-23T02:31:23;75.00;;;32.00;;
18387;SDS011;9320;50.256;19.026;2022-11-23T02:33:51;74.57;;;30.97;;
18387;SDS011;9320;50.256;19.026;2022-11-23T02:36:20;71.00;;;31.30;;
18387;SDS011;9320;50.256;19.026;2022-11-23T02:39:05;69.87;;;29.80;;
18387;SDS011;9320;50.256;19.026;2022-11-23T02:41:37;70.67;;;30.67;;
18387;SDS011;9320;50.256;19.026;2022-11-23T02:44:10;73.63;;;31.93;;
18387;SDS011;9320;50.256;19.026;2022-11-23T02:46:45;83.93;;;36.03;;
18387;SDS011;9320;50.256;19.026;2022-11-23T02:49:13;81.37;;;35.37;;
18387;SDS011;9320;50.256;19.026;2022-11-23T02:51:41;82.10;;;36.87;;
18387;SDS011;9320;50.256;19.026;2022-11-23T02:54:09;76.23;;;35.20;;
18387;SDS011;9320;50.256;19.026;2022-11-23T02:56:38;80.77;;;35.67;;
18387;SDS011;9320;50.256;19.026;2022-11-23T02:59:07;80.47;;;36.10;;
18387;SDS011;9320;50.256;19.026;2022-11-23T03:01:35;81.03;;;35.40;;
18387;SDS011;9320;50.256;19.026;2022-11-23T03:04:05;75.63;;;33.77;;
18387;SDS011;9320;50.256;19.026;2022-11-23T03:06:33;70.40;;;33.57;;
18387;SDS011;9320;50.256;19.026;2022-11-23T03:09:01;69.73;;;33.77;;
18387;SDS011;9320;50.256;19.026;2022-11-23T03:11:29;67.03;;;31.73;;
18387;SDS011;9320;50.256;19.026;2022-11-23T03:13:58;71.00;;;31.90;;
18387;SDS011;9320;50.256;19.026;2022-11-23T03:16:26;60.23;;;29.50;;
18387;SDS011;9320;50.256;19.026;2022-11-23T03:18:54;58.27;;;28.10;;
18387;SDS011;9320;50.256;19.026;2022-11-23T03:21:22;57.53;;;28.33;;
18387;SDS011;9320;50.256;19.026;2022-11-23T03:23:50;59.47;;;27.27;;
18387;SDS011;9320;50.256;19.026;2022-11-23T03:26:18;54.33;;;26.30;;
18387;SDS011;9320;50.256;19.026;2022-11-23T03:28:46;49.23;;;23.90;;
18387;SDS011;9320;50.256;19.026;2022-11-23T03:31:16;53.90;;;26.23;;
18387;SDS011;9320;50.256;19.026;2022-11-23T03:33:44;54.67;;;26.20;;
18387;SDS011;9320;50.256;19.026;2022-11-23T03:36:12;50.20;;;24.87;;
18387;SDS011;9320;50.256;19.026;2022-11-23T03:38:40;63.67;;;28.73;;
18387;SDS011;9320;50.256;19.026;2022-11-23T03:41:08;67.13;;;30.27;;
18387;SDS011;9320;50.256;19.026;2022-11-23T03:43:36;76.53;;;35.00;;
18387;SDS011;9320;50.256;19.026;2022-11-23T03:46:04;69.30;;;32.13;;
18387;SDS011;9320;50.256;19.026;2022-11-23T03:48:33;64.33;;;30.10;;
18387;SDS011;9320;50.256;19.026;2022-11-23T03:51:01;59.63;;;28.67;;
18387;SDS011;9320;50.256;19.026;2022-11-23T03:53:29;63.93;;;28.60;;
18387;SDS011;9320;50.256;19.026;2022-11-23T03:55:57;62.50;;;29.03;;
18387;SDS011;9320;50.256;19.026;2022-11-23T03:58:25;59.17;;;27.60;;
18387;SDS011;9320;50.256;19.026;2022-11-23T04:00:53;86.33;;;36.67;;
18387;SDS011;9320;50.256;19.026;2022-11-23T04:03:21;90.20;;;38.03;;
18387;SDS011;9320;50.256;19.026;2022-11-23T04:05:51;74.87;;;32.40;;
18387;SDS011;9320;50.256;19.026;2022-11-23T04:08:19;70.10;;;30.20;;
18387;SDS011;9320;50.256;19.026;2022-11-23T04:10:47;61.50;;;29.43;;
18387;SDS011;9320;50.256;19.026;2022-11-23T04:13:15;69.43;;;29.33;;
18387;SDS011;9320;50.256;19.026;2022-11-23T04:15:43;63.63;;;29.20;;
18387;SDS011;9320;50.256;19.026;2022-11-23T04:18:11;66.93;;;29.57;;
18387;SDS011;9320;50.256;19.026;2022-11-23T04:20:39;68.13;;;29.67;;
18387;SDS011;9320;50.256;19.026;2022-11-23T04:23:08;76.70;;;30.17;;
18387;SDS011;9320;50.256;19.026;2022-11-23T04:25:39;74.90;;;31.10;;
18387;SDS011;9320;50.256;19.026;2022-11-23T04:28:07;71.50;;;30.93;;
18387;SDS011;9320;50.256;19.026;2022-11-23T04:30:35;68.70;;;30.47;;
18387;SDS011;9320;50.256;19.026;2022-11-23T04:33:03;73.03;;;30.03;;
18387;SDS011;9320;50.256;19.026;2022-11-23T04:35:31;65.17;;;30.10;;
18387;SDS011;9320;50.256;19.026;2022-11-23T04:38:00;70.13;;;29.43;;
18387;SDS011;9320;50.256;19.026;2022-11-23T04:40:29;70.43;;;31.50;;
18387;SDS011;9320;50.256;19.026;2022-11-23T04:42:57;66.00;;;29.67;;
18387;SDS011;9320;50.256;19.026;2022-11-23T04:45:27;69.27;;;29.77;;
18387;SDS011;9320;50.256;19.026;2022-11-23T04:47:55;70.33;;;31.67;;
18387;SDS011;9320;50.256;19.026;2022-11-23T04:50:23;63.67;;;30.67;;
18387;SDS011;9320;50.256;19.026;2022-11-23T04:52:51;73.57;;;31.50;;
18387;SDS011;9320;50.256;19.026;2022-11-23T04:55:19;68.70;;;29.93;;
18387;SDS011;9320;50.256;19.026;2022-11-23T04:57:48;61.20;;;29.10;;
18387;SDS011;9320;50.256;19.026;2022-11-23T05:00:16;71.97;;;31.77;;
18387;SDS011;9320;50.256;19.026;2022-11-23T05:02:44;62.67;;;27.80;;
18387;SDS011;9320;50.256;19.026;2022-11-23T05:05:12;60.40;;;27.47;;
18387;SDS011;9320;50.256;19.026;2022-11-23T05:07:40;60.83;;;28.10;;
18387;SDS011;9320;50.256;19.026;2022-11-23T05:10:09;62.30;;;28.40;;
18387;SDS011;9320;50.256;19.026;2022-11-23T05:12:37;61.80;;;29.20;;
18387;SDS011;9320;50.256;19.026;2022-11-23T05:15:07;65.30;;;29.47;;
18387;SDS011;9320;50.256;19.026;2022-11-23T05:17:37;67.50;;;30.57;;
18387;SDS011;9320;50.256;19.026;2022-11-23T05:20:06;61.63;;;30.53;;
18387;SDS011;9320;50.256;19.026;2022-11-23T05:22:35;65.30;;;28.70;;
18387;SDS011;9320;50.256;19.026;2022-11-23T05:25:03;62.80;;;29.50;;
18387;SDS011;9320;50.256;19.026;2022-11-23T05:27:32;62.97;;;29.70;;
18387;SDS011;9320;50.256;19.026;2022-11-23T05:30:00;60.50;;;27.37;;
18387;SDS011;9320;50.256;19.026;2022-11-23T05:32:29;49.80;;;26.10;;
18387;SDS011;9320;50.256;19.026;2022-11-23T05:34:57;51.07;;;26.37;;
18387;SDS011;9320;50.256;19.026;2022-11-23T05:37:25;59.00;;;28.07;;
18387;SDS011;9320;50.256;19.026;2022-11-23T05:39:53;54.13;;;26.00;;
18387;SDS011;9320;50.256;19.026;2022-11-23T05:42:21;54.20;;;26.77;;
18387;SDS011;9320;50.256;19.026;2022-11-23T05:44:49;60.67;;;28.13;;
18387;SDS011;9320;50.256;19.026;2022-11-23T05:47:17;53.93;;;27.90;;
18387;SDS011;9320;50.256;19.026;2022-11-23T05:49:47;59.90;;;26.83;;
18387;SDS011;9320;50.256;19.026;2022-11-23T05:52:15;54.93;;;27.07;;
18387;SDS011;9320;50.256;19.026;2022-11-23T05:54:43;56.20;;;27.53;;
18387;SDS011;9320;50.256;19.026;2022-11-23T05:57:12;53.27;;;26.30;;
18387;SDS011;9320;50.256;19.026;2022-11-23T05:59:41;60.23;;;28.90;;
18387;SDS011;9320;50.256;19.026;2022-11-23T06:02:08;57.70;;;27.20;;
18387;SDS011;9320;50.256;19.026;2022-11-23T06:04:36;53.47;;;27.23;;
18387;SDS011;9320;50.256;19.026;2022-11-23T06:07:06;58.80;;;28.63;;
18387;SDS011;9320;50.256;19.026;2022-11-23T06:09:34;60.27;;;29.23;;
18387;SDS011;9320;50.256;19.026;2022-11-23T06:12:02;63.70;;;30.20;;
18387;SDS011;9320;50.256;19.026;2022-11-23T06:14:30;61.00;;;30.10;;
18387;SDS011;9320;50.256;19.026;2022-11-23T06:16:58;56.30;;;28.10;;
18387;SDS011;9320;50.256;19.026;2022-11-23T06:19:26;58.13;;;29.20;;
18387;SDS011;9320;50.256;19.026;2022-11-23T06:21:56;58.50;;;28.53;;
18387;SDS011;9320;50.256;19.026;2022-11-23T06:24:25;61.83;;;29.40;;
18387;SDS011;9320;50.256;19.026;2022-11-23T06:26:53;57.57;;;29.10;;
18387;SDS011;9320;50.256;19.026;2022-11-23T06:29:21;66.67;;;29.93;;
18387;SDS011;9320;50.256;19.026;2022-11-23T06:31:49;60.95;;;31.48;;
18387;SDS011;9320;50.256;19.026;2022-11-23T06:34:17;58.07;;;29.00;;
18387;SDS011;9320;50.256;19.026;2022-11-23T06:36:45;57.43;;;28.93;;
18387;SDS011;9320;50.256;19.026;2022-11-23T06:39:13;56.53;;;28.60;;
18387;SDS011;9320;50.256;19.026;2022-11-23T06:41:42;55.03;;;28.80;;
18387;SDS011;9320;50.256;19.026;2022-11-23T06:44:10;53.40;;;28.93;;
18387;SDS011;9320;50.256;19.026;2022-11-23T06:46:38;54.27;;;28.03;;
18387;SDS011;9320;50.256;19.026;2022-11-23T06:49:06;59.10;;;29.60;;
18387;SDS011;9320;50.256;19.026;2022-11-23T06:51:34;58.23;;;28.43;;
18387;SDS011;9320;50.256;19.026;2022-11-23T06:54:03;64.03;;;30.60;;
18387;SDS011;9320;50.256;19.026;2022-11-23T06:56:31;55.73;;;29.17;;
18387;SDS011;9320;50.256;19.026;2022-11-23T06:59:00;57.60;;;29.07;;
18387;SDS011;9320;50.256;19.026;2022-11-23T07:01:28;60.33;;;29.57;;
18387;SDS011;9320;50.256;19.026;2022-11-23T07:03:58;58.53;;;29.93;;
18387;SDS011;9320;50.256;19.026;2022-11-23T07:06:26;66.10;;;30.97;;
18387;SDS011;9320;50.256;19.026;2022-11-23T07:08:55;63.27;;;28.53;;
18387;SDS011;9320;50.256;19.026;2022-11-23T07:11:23;56.73;;;29.77;;
18387;SDS011;9320;50.256;19.026;2022-11-23T07:13:51;62.47;;;31.30;;
18387;SDS011;9320;50.256;19.026;2022-11-23T07:16:21;66.20;;;31.27;;
18387;SDS011;9320;50.256;19.026;2022-11-23T07:18:50;63.87;;;30.33;;
18387;SDS011;9320;50.256;19.026;2022-11-23T07:21:18;65.50;;;30.50;;
18387;SDS011;9320;50.256;19.026;2022-11-23T07:23:46;60.07;;;30.60;;
18387;SDS011;9320;50.256;19.026;2022-11-23T07:26:14;63.27;;;30.33;;
18387;SDS011;9320;50.256;19.026;2022-11-23T07:28:42;66.33;;;32.57;;
18387;SDS011;9320;50.256;19.026;2022-11-23T07:31:10;61.30;;;30.07;;
18387;SDS011;9320;50.256;19.026;2022-11-23T07:33:43;59.10;;;30.57;;
18387;SDS011;9320;50.256;19.026;2022-11-23T07:36:11;69.50;;;29.67;;
18387;SDS011;9320;50.256;19.026;2022-11-23T07:38:40;54.50;;;28.00;;
18387;SDS011;9320;50.256;19.026;2022-11-23T07:41:08;60.00;;;28.63;;
18387;SDS011;9320;50.256;19.026;2022-11-23T07:43:36;62.40;;;31.40;;
18387;SDS011;9320;50.256;19.026;2022-11-23T07:46:04;61.77;;;31.53;;
18387;SDS011;9320;50.256;19.026;2022-11-23T07:48:32;63.43;;;31.77;;
18387;SDS011;9320;50.256;19.026;2022-11-23T07:51:03;54.00;;;28.03;;
18387;SDS011;9320;50.256;19.026;2022-11-23T07:53:31;56.80;;;27.73;;
18387;SDS011;9320;50.256;19.026;2022-11-23T07:56:01;61.93;;;30.67;;
18387;SDS011;9320;50.256;19.026;2022-11-23T07:58:29;64.33;;;30.87;;
18387;SDS011;9320;50.256;19.026;2022-11-23T08:00:58;66.57;;;32.27;;
18387;SDS011;9320;50.256;19.026;2022-11-23T08:03:26;67.07;;;33.60;;
18387;SDS011;9320;50.256;19.026;2022-11-23T08:05:55;65.60;;;33.70;;
18387;SDS011;9320;50.256;19.026;2022-11-23T08:08:25;60.70;;;33.17;;
18387;SDS011;9320;50.256;19.026;2022-11-23T08:10:53;71.97;;;35.80;;
18387;SDS011;9320;50.256;19.026;2022-11-23T08:13:21;64.67;;;34.17;;
18387;SDS011;9320;50.256;19.026;2022-11-23T08:15:49;69.60;;;34.87;;
18387;SDS011;9320;50.256;19.026;2022-11-23T08:18:21;61.10;;;33.67;;
18387;SDS011;9320;50.256;19.026;2022-11-23T08:20:49;61.23;;;32.97;;
18387;SDS011;9320;50.256;19.026;2022-11-23T08:23:17;54.73;;;29.00;;
18387;SDS011;9320;50.256;19.026;2022-11-23T08:25:47;49.70;;;27.57;;
18387;SDS011;9320;50.256;19.026;2022-11-23T08:28:15;49.60;;;25.97;;
18387;SDS011;9320;50.256;19.026;2022-11-23T08:30:44;45.07;;;24.60;;
18387;SDS011;9320;50.256;19.026;2022-11-23T08:33:12;53.00;;;27.30;;
18387;SDS011;9320;50.256;19.026;2022-11-23T08:35:40;50.50;;;26.67;;
18387;SDS011;9320;50.256;19.026;2022-11-23T08:38:09;49.83;;;27.07;;
18387;SDS011;9320;50.256;19.026;2022-11-23T08:40:38;49.50;;;25.73;;
18387;SDS011;9320;50.256;19.026;2022-11-23T08:43:08;52.40;;;26.27;;
18387;SDS011;9320;50.256;19.026;2022-11-23T08:45:36;46.70;;;25.20;;
18387;SDS011;9320;50.256;19.026;2022-11-23T08:48:05;49.83;;;26.33;;
18387;SDS011;9320;50.256;19.026;2022-11-23T08:50:34;45.07;;;25.00;;
18387;SDS011;9320;50.256;19.026;2022-11-23T08:53:02;44.27;;;24.77;;
18387;SDS011;9320;50.256;19.026;2022-11-23T08:55:31;50.37;;;26.37;;
18387;SDS011;9320;50.256;19.026;2022-11-23T08:57:59;51.17;;;26.00;;
18387;SDS011;9320;50.256;19.026;2022-11-23T09:00:28;49.27;;;26.63;;
18387;SDS011;9320;50.256;19.026;2022-11-23T09:02:56;46.77;;;25.23;;
18387;SDS011;9320;50.256;19.026;2022-11-23T09:05:25;51.13;;;27.17;;
18387;SDS011;9320;50.256;19.026;2022-11-23T09:07:54;51.13;;;26.07;;
18387;SDS011;9320;50.256;19.026;2022-11-23T09:10:23;41.80;;;24.13;;
18387;SDS011;9320;50.256;19.026;2022-11-23T09:12:51;42.93;;;23.13;;
18387;SDS011;9320;50.256;19.026;2022-11-23T09:15:19;44.27;;;24.37;;
18387;SDS011;9320;50.256;19.026;2022-11-23T09:17:49;39.10;;;22.50;;
18387;SDS011;9320;50.256;19.026;2022-11-23T09:20:17;40.90;;;21.97;;
18387;SDS011;9320;50.256;19.026;2022-11-23T09:22:49;40.90;;;23.90;;
18387;SDS011;9320;50.256;19.026;2022-11-23T09:25:18;39.40;;;22.20;;
18387;SDS011;9320;50.256;19.026;2022-11-23T09:27:48;40.80;;;21.03;;
18387;SDS011;9320;50.256;19.026;2022-11-23T09:30:16;37.27;;;21.97;;
18387;SDS011;9320;50.256;19.026;2022-11-23T09:32:44;40.43;;;22.60;;
18387;SDS011;9320;50.256;19.026;2022-11-23T09:35:14;39.60;;;22.27;;
18387;SDS011;9320;50.256;19.026;2022-11-23T09:37:42;38.07;;;21.23;;
18387;SDS011;9320;50.256;19.026;2022-11-23T09:40:10;42.43;;;21.73;;
18387;SDS011;9320;50.256;19.026;2022-11-23T09:42:54;39.87;;;22.40;;
18387;SDS011;9320;50.256;19.026;2022-11-23T09:45:35;39.43;;;21.70;;
18387;SDS011;9320;50.256;19.026;2022-11-23T09:48:14;41.00;;;21.93;;
18387;SDS011;9320;50.256;19.026;2022-11-23T09:50:55;43.63;;;21.60;;
18387;SDS011;9320;50.256;19.026;2022-11-23T09:53:28;36.43;;;21.20;;
18387;SDS011;9320;50.256;19.026;2022-11-23T09:56:00;35.23;;;20.93;;
18387;SDS011;9320;50.256;19.026;2022-11-23T09:58:29;37.00;;;21.27;;
18387;SDS011;9320;50.256;19.026;2022-11-23T10:01:05;34.37;;;20.63;;
18387;SDS011;9320;50.256;19.026;2022-11-23T10:03:38;33.50;;;20.33;;
18387;SDS011;9320;50.256;19.026;2022-11-23T10:06:17;38.97;;;21.43;;
18387;SDS011;9320;50.256;19.026;2022-11-23T10:08:51;39.23;;;22.07;;
18387;SDS011;9320;50.256;19.026;2022-11-23T10:11:52;37.90;;;22.03;;
18387;SDS011;9320;50.256;19.026;2022-11-23T10:14:40;35.37;;;20.57;;
18387;SDS011;9320;50.256;19.026;2022-11-23T10:17:20;36.33;;;21.70;;
18387;SDS011;9320;50.256;19.026;2022-11-23T10:20:02;38.67;;;20.63;;
18387;SDS011;9320;50.256;19.026;2022-11-23T10:22:46;36.97;;;20.37;;
18387;SDS011;9320;50.256;19.026;2022-11-23T10:25:19;35.23;;;21.03;;
18387;SDS011;9320;50.256;19.026;2022-11-23T10:27:50;35.53;;;21.03;;
18387;SDS011;9320;50.256;19.026;2022-11-23T10:30:22;34.17;;;20.43;;
18387;SDS011;9320;50.256;19.026;2022-11-23T10:32:52;31.53;;;19.90;;
18387;SDS011;9320;50.256;19.026;2022-11-23T10:35:26;37.77;;;20.87;;
18387;SDS011;9320;50.256;19.026;2022-11-23T10:38:10;36.90;;;20.03;;
18387;SDS011;9320;50.256;19.026;2022-11-23T10:40:45;36.77;;;21.33;;
18387;SDS011;9320;50.256;19.026;2022-11-23T10:43:24;32.70;;;19.73;;
18387;SDS011;9320;50.256;19.026;2022-11-23T10:46:21;33.90;;;19.87;;
18387;SDS011;9320;50.256;19.026;2022-11-23T10:49:08;36.90;;;19.80;;
18387;SDS011;9320;50.256;19.026;2022-11-23T10:51:51;32.00;;;19.40;;
18387;SDS011;9320;50.256;19.026;2022-11-23T10:54:23;37.37;;;19.40;;
18387;SDS011;9320;50.256;19.026;2022-11-23T10:56:56;36.83;;;20.73;;
18387;SDS011;9320;50.256;19.026;2022-11-23T10:59:33;34.30;;;19.97;;
18387;SDS011;9320;50.256;19.026;2022-11-23T11:02:18;37.23;;;20.93;;
18387;SDS011;9320;50.256;19.026;2022-11-23T11:04:48;34.17;;;20.37;;
18387;SDS011;9320;50.256;19.026;2022-11-23T11:07:25;30.20;;;18.33;;
18387;SDS011;9320;50.256;19.026;2022-11-23T11:09:56;37.47;;;20.53;;
18387;SDS011;9320;50.256;19.026;2022-11-23T11:12:26;37.27;;;19.17;;
18387;SDS011;9320;50.256;19.026;2022-11-23T11:14:56;33.47;;;20.60;;
18387;SDS011;9320;50.256;19.026;2022-11-23T11:17:37;37.03;;;19.73;;
18387;SDS011;9320;50.256;19.026;2022-11-23T11:20:23;36.23;;;20.43;;
18387;SDS011;9320;50.256;19.026;2022-11-23T11:22:57;38.13;;;21.50;;
18387;SDS011;9320;50.256;19.026;2022-11-23T11:25:28;33.73;;;19.87;;
18387;SDS011;9320;50.256;19.026;2022-11-23T11:27:59;33.50;;;19.33;;
18387;SDS011;9320;50.256;19.026;2022-11-23T11:30:31;36.53;;;19.50;;
18387;SDS011;9320;50.256;19.026;2022-11-23T11:33:09;33.43;;;18.97;;
18387;SDS011;9320;50.256;19.026;2022-11-23T11:35:41;33.13;;;19.10;;
18387;SDS011;9320;50.256;19.026;2022-11-23T11:38:14;33.60;;;19.40;;
18387;SDS011;9320;50.256;19.026;2022-11-23T11:40:48;35.10;;;20.53;;
18387;SDS011;9320;50.256;19.026;2022-11-23T11:43:18;35.83;;;20.77;;
18387;SDS011;9320;50.256;19.026;2022-11-23T11:46:03;41.50;;;21.23;;
18387;SDS011;9320;50.256;19.026;2022-11-23T11:48:57;42.10;;;22.13;;
18387;SDS011;9320;50.256;19.026;2022-11-23T11:51:31;41.33;;;21.30;;
18387;SDS011;9320;50.256;19.026;2022-11-23T11:54:04;41.57;;;23.20;;
18387;SDS011;9320;50.256;19.026;2022-11-23T11:56:42;38.67;;;20.70;;
18387;SDS011;9320;50.256;19.026;2022-11-23T11:59:13;33.70;;;18.70;;
18387;SDS011;9320;50.256;19.026;2022-11-23T12:01:49;33.93;;;19.10;;
18387;SDS011;9320;50.256;19.026;2022-11-23T12:04:25;33.07;;;18.20;;
18387;SDS011;9320;50.256;19.026;2022-11-23T12:06:59;29.17;;;17.77;;
18387;SDS011;9320;50.256;19.026;2022-11-23T12:09:33;37.83;;;18.77;;
18387;SDS011;9320;50.256;19.026;2022-11-23T12:12:11;37.10;;;20.00;;
18387;SDS011;9320;50.256;19.026;2022-11-23T12:14:42;34.27;;;19.27;;
18387;SDS011;9320;50.256;19.026;2022-11-23T12:17:17;34.13;;;19.53;;
18387;SDS011;9320;50.256;19.026;2022-11-23T12:20:04;39.63;;;21.23;;
18387;SDS011;9320;50.256;19.026;2022-11-23T12:22:39;38.10;;;21.20;;
18387;SDS011;9320;50.256;19.026;2022-11-23T12:25:20;36.00;;;20.07;;
18387;SDS011;9320;50.256;19.026;2022-11-23T12:28:03;32.40;;;18.60;;
18387;SDS011;9320;50.256;19.026;2022-11-23T12:30:45;39.23;;;21.33;;
18387;SDS011;9320;50.256;19.026;2022-11-23T12:33:21;40.03;;;20.00;;
18387;SDS011;9320;50.256;19.026;2022-11-23T12:36:25;40.00;;;19.93;;
18387;SDS011;9320;50.256;19.026;2022-11-23T12:39:07;33.13;;;20.17;;
18387;SDS011;9320;50.256;19.026;2022-11-23T12:41:49;32.30;;;19.43;;
18387;SDS011;9320;50.256;19.026;2022-11-23T12:44:35;37.83;;;19.50;;
18387;SDS011;9320;50.256;19.026;2022-11-23T12:47:16;34.63;;;20.00;;
18387;SDS011;9320;50.256;19.026;2022-11-23T12:49:57;38.63;;;20.30;;
18387;SDS011;9320;50.256;19.026;2022-11-23T12:52:37;36.57;;;21.03;;
18387;SDS011;9320;50.256;19.026;2022-11-23T12:55:17;40.50;;;22.00;;
18387;SDS011;9320;50.256;19.026;2022-11-23T12:57:51;41.17;;;22.47;;
18387;SDS011;9320;50.256;19.026;2022-11-23T13:00:24;41.70;;;23.20;;
18387;SDS011;9320;50.256;19.026;2022-11-23T13:03:06;38.63;;;21.60;;
18387;SDS011;9320;50.256;19.026;2022-11-23T13:09:08;36.53;;;20.37;;
18387;SDS011;9320;50.256;19.026;2022-11-23T13:12:01;38.57;;;20.20;;
18387;SDS011;9320;50.256;19.026;2022-11-23T13:14:41;37.33;;;20.03;;
18387;SDS011;9320;50.256;19.026;2022-11-23T13:17:23;37.37;;;20.40;;
18387;SDS011;9320;50.256;19.026;2022-11-23T13:20:11;39.60;;;21.47;;
18387;SDS011;9320;50.256;19.026;2022-11-23T13:22:47;39.57;;;22.13;;
18387;SDS011;9320;50.256;19.026;2022-11-23T13:25:21;42.87;;;21.80;;
18387;SDS011;9320;50.256;19.026;2022-11-23T13:27:54;49.47;;;23.67;;
18387;SDS011;9320;50.256;19.026;2022-11-23T13:30:27;43.20;;;23.40;;
18387;SDS011;9320;50.256;19.026;2022-11-23T13:33:25;49.27;;;24.17;;
18387;SDS011;9320;50.256;19.026;2022-11-23T13:36:03;40.00;;;21.93;;
18387;SDS011;9320;50.256;19.026;2022-11-23T13:38:38;44.23;;;22.83;;
18387;SDS011;9320;50.256;19.026;2022-11-23T13:44:23;42.90;;;23.63;;
18387;SDS011;9320;50.256;19.026;2022-11-23T13:47:00;41.53;;;21.80;;
18387;SDS011;9320;50.256;19.026;2022-11-23T13:49:33;42.67;;;21.40;;
18387;SDS011;9320;50.256;19.026;2022-11-23T13:52:20;45.37;;;23.53;;
18387;SDS011;9320;50.256;19.026;2022-11-23T13:55:00;39.63;;;21.83;;
18387;SDS011;9320;50.256;19.026;2022-11-23T13:57:35;45.10;;;21.80;;
18387;SDS011;9320;50.256;19.026;2022-11-23T14:06:24;47.37;;;24.17;;
18387;SDS011;9320;50.256;19.026;2022-11-23T14:09:00;50.17;;;24.63;;
18387;SDS011;9320;50.256;19.026;2022-11-23T14:11:34;44.83;;;23.27;;
18387;SDS011;9320;50.256;19.026;2022-11-23T14:14:12;52.97;;;24.80;;
18387;SDS011;9320;50.256;19.026;2022-11-23T14:17:04;44.37;;;23.07;;
18387;SDS011;9320;50.256;19.026;2022-11-23T14:20:00;42.60;;;21.93;;
18387;SDS011;9320;50.256;19.026;2022-11-23T14:22:43;36.63;;;20.57;;
18387;SDS011;9320;50.256;19.026;2022-11-23T14:25:26;40.13;;;20.90;;
18387;SDS011;9320;50.256;19.026;2022-11-23T14:28:06;46.83;;;23.27;;
18387;SDS011;9320;50.256;19.026;2022-11-23T14:30:55;47.03;;;25.00;;
18387;SDS011;9320;50.256;19.026;2022-11-23T14:33:34;44.70;;;22.83;;
18387;SDS011;9320;50.256;19.026;2022-11-23T14:36:14;41.83;;;21.37;;
18387;SDS011;9320;50.256;19.026;2022-11-23T14:39:14;43.37;;;23.07;;
18387;SDS011;9320;50.256;19.026;2022-11-23T14:42:04;43.83;;;23.33;;
18387;SDS011;9320;50.256;19.026;2022-11-23T14:44:38;41.37;;;21.97;;
18387;SDS011;9320;50.256;19.026;2022-11-23T14:47:08;37.27;;;19.70;;
18387;SDS011;9320;50.256;19.026;2022-11-23T14:49:46;37.63;;;18.60;;
18387;SDS011;9320;50.256;19.026;2022-11-23T14:52:16;43.03;;;23.20;;
18387;SDS011;9320;50.256;19.026;2022-11-23T14:54:48;43.70;;;23.33;;
18387;SDS011;9320;50.256;19.026;2022-11-23T14:57:18;39.20;;;21.97;;
18387;SDS011;9320;50.256;19.026;2022-11-23T14:59:49;44.27;;;22.33;;
18387;SDS011;9320;50.256;19.026;2022-11-23T15:02:22;36.77;;;19.70;;